sensor_id;sensor_type;location;lat;lon;timestamp;pressure;altitude;pressure_sealevel;temperature;humidity
71735;BME280;59577;52.122;5.406;2023-04-07T00:01:38;101545.38;;;7.68;100.00
71735;BME280;59577;52.122;5.406;2023-04-07T00:04:05;101552.34;;;7.69;100.00
71735;BME280;59577;52.122;5.406;2023-04-07T00:06:35;101551.88;;;7.67;100.00
71735;BME280;59577;52.122;5.406;2023-04-07T00:09:02;101553.78;;;7.67;100.00
71735;BME280;59577;52.122;5.406;2023-04-07T00:11:28;101546.78;;;7.66;100.00
71735;BME280;59577;52.122;5.406;2023-04-07T00:13:55;101548.69;;;7.65;100.00
71735;BME280;59577;52.122;5.406;2023-04-07T00:16:21;101547.41;;;7.63;100.00
71735;BME280;59577;52.122;5.406;2023-04-07T00:18:48;101552.00;;;7.62;100.00
71735;BME280;59577;52.122;5.406;2023-04-07T00:21:15;101546.63;;;7.62;100.00
71735;BME280;59577;52.122;5.406;2023-04-07T00:23:41;101550.09;;;7.63;100.00
71735;BME280;59577;52.122;5.406;2023-04-07T00:26:08;101552.00;;;7.62;100.00
71735;BME280;59577;52.122;5.406;2023-04-07T00:28:34;101552.63;;;7.59;100.00
71735;BME280;59577;52.122;5.406;2023-04-07T00:31:01;101553.75;;;7.58;100.00
71735;BME280;59577;52.122;5.406;2023-04-07T00:33:27;101554.84;;;7.57;100.00
71735;BME280;59577;52.122;5.406;2023-04-07T00:35:54;101553.28;;;7.56;100.00
71735;BME280;59577;52.122;5.406;2023-04-07T00:38:23;101557.69;;;7.52;100.00
71735;BME280;59577;52.122;5.406;2023-04-07T00:40:49;101555.78;;;7.52;100.00
71735;BME280;59577;52.122;5.406;2023-04-07T00:43:22;101552.00;;;7.53;100.00
71735;BME280;59577;52.122;5.406;2023-04-07T00:45:48;101557.38;;;7.53;100.00
71735;BME280;59577;52.122;5.406;2023-04-07T00:48:16;101550.09;;;7.54;100.00
71735;BME280;59577;52.122;5.406;2023-04-07T00:50:44;101555.97;;;7.56;100.00
71735;BME280;59577;52.122;5.406;2023-04-07T00:53:11;101551.38;;;7.57;100.00
71735;BME280;59577;52.122;5.406;2023-04-07T00:55:38;101554.38;;;7.55;100.00
71735;BME280;59577;52.122;5.406;2023-04-07T00:58:04;101555.16;;;7.56;100.00
71735;BME280;59577;52.122;5.406;2023-04-07T01:00:41;101554.38;;;7.55;100.00
71735;BME280;59577;52.122;5.406;2023-04-07T01:03:21;101553.91;;;7.53;100.00
71735;BME280;59577;52.122;5.406;2023-04-07T01:05:54;101553.09;;;7.52;100.00
71735;BME280;59577;52.122;5.406;2023-04-07T01:11:12;101549.59;;;7.52;100.00
71735;BME280;59577;52.122;5.406;2023-04-07T01:13:48;101548.03;;;7.51;100.00
71735;BME280;59577;52.122;5.406;2023-04-07T01:16:40;101549.91;;;7.50;100.00
71735;BME280;59577;52.122;5.406;2023-04-07T01:19:14;101551.03;;;7.49;100.00
71735;BME280;59577;52.122;5.406;2023-04-07T01:21:43;101551.81;;;7.50;100.00
71735;BME280;59577;52.122;5.406;2023-04-07T01:27:02;101555.63;;;7.49;100.00
71735;BME280;59577;52.122;5.406;2023-04-07T01:29:36;101562.13;;;7.48;100.00
71735;BME280;59577;52.122;5.406;2023-04-07T01:32:04;101557.84;;;7.47;100.00
71735;BME280;59577;52.122;5.406;2023-04-07T01:34:37;101561.31;;;7.47;100.00
71735;BME280;59577;52.122;5.406;2023-04-07T01:37:06;101561.66;;;7.46;100.00
71735;BME280;59577;52.122;5.406;2023-04-07T01:39:34;101556.25;;;7.46;100.00
71735;BME280;59577;52.122;5.406;2023-04-07T01:42:04;101554.66;;;7.45;100.00
71735;BME280;59577;52.122;5.406;2023-04-07T01:44:32;101560.84;;;7.45;100.00
71735;BME280;59577;52.122;5.406;2023-04-07T01:47:00;101558.13;;;7.45;100.00
71735;BME280;59577;52.122;5.406;2023-04-07T01:49:29;101555.44;;;7.45;100.00
71735;BME280;59577;52.122;5.406;2023-04-07T01:51:56;101557.84;;;7.47;100.00
71735;BME280;59577;52.122;5.406;2023-04-07T01:54:23;101552.44;;;7.47;100.00
71735;BME280;59577;52.122;5.406;2023-04-07T01:56:51;101556.75;;;7.48;100.00
71735;BME280;59577;52.122;5.406;2023-04-07T01:59:18;101555.63;;;7.49;100.00
71735;BME280;59577;52.122;5.406;2023-04-07T02:01:44;101551.81;;;7.50;100.00
71735;BME280;59577;52.122;5.406;2023-04-07T02:04:36;101555.31;;;7.50;100.00
71735;BME280;59577;52.122;5.406;2023-04-07T02:07:15;101553.75;;;7.49;100.00
71735;BME280;59577;52.122;5.406;2023-04-07T02:09:46;101556.44;;;7.49;100.00
71735;BME280;59577;52.122;5.406;2023-04-07T02:12:14;101554.53;;;7.50;100.00
71735;BME280;59577;52.122;5.406;2023-04-07T02:14:42;101551.81;;;7.50;100.00
71735;BME280;59577;52.122;5.406;2023-04-07T02:17:10;101555.31;;;7.50;100.00
71735;BME280;59577;52.122;5.406;2023-04-07T02:19:37;101554.53;;;7.50;100.00
71735;BME280;59577;52.122;5.406;2023-04-07T02:22:04;101558.81;;;7.51;100.00
71735;BME280;59577;52.122;5.406;2023-04-07T02:24:32;101566.09;;;7.50;100.00
71735;BME280;59577;52.122;5.406;2023-04-07T02:26:58;101558.31;;;7.49;100.00
71735;BME280;59577;52.122;5.406;2023-04-07T02:29:27;101565.28;;;7.50;100.00
71735;BME280;59577;52.122;5.406;2023-04-07T02:31:54;101561.00;;;7.49;100.00
71735;BME280;59577;52.122;5.406;2023-04-07T02:34:21;101565.28;;;7.50;100.00
71735;BME280;59577;52.122;5.406;2023-04-07T02:36:48;101561.00;;;7.49;100.00
71735;BME280;59577;52.122;5.406;2023-04-07T02:39:14;101561.81;;;7.49;100.00
71735;BME280;59577;52.122;5.406;2023-04-07T02:41:41;101556.75;;;7.48;100.00
71735;BME280;59577;52.122;5.406;2023-04-07T02:44:07;101559.44;;;7.48;100.00
71735;BME280;59577;52.122;5.406;2023-04-07T02:46:34;101555.13;;;7.47;100.00
71735;BME280;59577;52.122;5.406;2023-04-07T02:49:01;101553.56;;;7.46;100.00
71735;BME280;59577;52.122;5.406;2023-04-07T02:51:27;101567.34;;;7.44;100.00
71735;BME280;59577;52.122;5.406;2023-04-07T02:53:54;101566.69;;;7.47;100.00
71735;BME280;59577;52.122;5.406;2023-04-07T02:56:21;101560.84;;;7.45;100.00
71735;BME280;59577;52.122;5.406;2023-04-07T02:58:47;101566.38;;;7.49;100.00
71735;BME280;59577;52.122;5.406;2023-04-07T03:01:14;101563.69;;;7.49;100.00
71735;BME280;59577;52.122;5.406;2023-04-07T03:03:41;101571.47;;;7.50;100.00
71735;BME280;59577;52.122;5.406;2023-04-07T03:06:10;101568.47;;;7.52;100.00
71735;BME280;59577;52.122;5.406;2023-04-07T03:08:36;101568.47;;;7.52;100.00
71735;BME280;59577;52.122;5.406;2023-04-07T03:11:03;101570.53;;;7.55;100.00
71735;BME280;59577;52.122;5.406;2023-04-07T03:13:30;101573.22;;;7.55;100.00
71735;BME280;59577;52.122;5.406;2023-04-07T03:15:56;101565.94;;;7.56;100.00
71735;BME280;59577;52.122;5.406;2023-04-07T03:18:23;101564.38;;;7.55;100.00
71735;BME280;59577;52.122;5.406;2023-04-07T03:20:50;101571.63;;;7.54;100.00
71735;BME280;59577;52.122;5.406;2023-04-07T03:23:18;101574.34;;;7.54;100.00
71735;BME280;59577;52.122;5.406;2023-04-07T03:25:44;101571.16;;;7.52;100.00
71735;BME280;59577;52.122;5.406;2023-04-07T03:28:13;101573.06;;;7.51;100.00
71735;BME280;59577;52.122;5.406;2023-04-07T03:30:40;101569.09;;;7.49;100.00
71735;BME280;59577;52.122;5.406;2023-04-07T03:33:07;101572.59;;;7.49;100.00
71735;BME280;59577;52.122;5.406;2023-04-07T03:35:34;101569.09;;;7.49;100.00
71735;BME280;59577;52.122;5.406;2023-04-07T03:38:01;101573.22;;;7.46;100.00
71735;BME280;59577;52.122;5.406;2023-04-07T03:40:27;101575.13;;;7.46;100.00
71735;BME280;59577;52.122;5.406;2023-04-07T03:42:54;101575.44;;;7.44;100.00
71735;BME280;59577;52.122;5.406;2023-04-07T03:45:20;101577.00;;;7.45;100.00
71735;BME280;59577;52.122;5.406;2023-04-07T03:47:47;101576.22;;;7.45;100.00
71735;BME280;59577;52.122;5.406;2023-04-07T03:50:13;101581.59;;;7.45;100.00
71735;BME280;59577;52.122;5.406;2023-04-07T03:52:41;101575.44;;;7.44;100.00
71735;BME280;59577;52.122;5.406;2023-04-07T03:55:08;101567.34;;;7.44;100.00
71735;BME280;59577;52.122;5.406;2023-04-07T03:57:34;101568.44;;;7.43;100.00
71735;BME280;59577;52.122;5.406;2023-04-07T04:00:01;101568.44;;;7.43;100.00
71735;BME280;59577;52.122;5.406;2023-04-07T04:02:28;101573.22;;;7.46;100.00
71735;BME280;59577;52.122;5.406;2023-04-07T04:04:55;101571.59;;;7.45;100.00
71735;BME280;59577;52.122;5.406;2023-04-07T04:07:21;101573.50;;;7.45;100.00
71735;BME280;59577;52.122;5.406;2023-04-07T04:09:48;101578.13;;;7.44;100.00
71735;BME280;59577;52.122;5.406;2023-04-07T04:12:14;101583.19;;;7.46;100.00
71735;BME280;59577;52.122;5.406;2023-04-07T04:14:41;101583.69;;;7.48;100.00
71735;BME280;59577;52.122;5.406;2023-04-07T04:17:07;101574.31;;;7.45;100.00
71735;BME280;59577;52.122;5.406;2023-04-07T04:19:34;101574.31;;;7.45;100.00
71735;BME280;59577;52.122;5.406;2023-04-07T04:22:00;101587.47;;;7.47;100.00
71735;BME280;59577;52.122;5.406;2023-04-07T04:24:27;101579.22;;;7.43;100.00
71735;BME280;59577;52.122;5.406;2023-04-07T04:26:53;101584.59;;;7.43;100.00
71735;BME280;59577;52.122;5.406;2023-04-07T04:29:27;101582.69;;;7.44;100.00
71735;BME280;59577;52.122;5.406;2023-04-07T04:31:56;101591.59;;;7.44;100.00
71735;BME280;59577;52.122;5.406;2023-04-07T04:34:23;101594.28;;;7.44;100.00
71735;BME280;59577;52.122;5.406;2023-04-07T04:36:49;101597.75;;;7.45;100.00
71735;BME280;59577;52.122;5.406;2023-04-07T04:39:16;101604.41;;;7.47;100.00
71735;BME280;59577;52.122;5.406;2023-04-07T04:41:46;101611.22;;;7.45;100.00
71735;BME280;59577;52.122;5.406;2023-04-07T04:44:13;101601.53;;;7.44;100.00
71735;BME280;59577;52.122;5.406;2023-04-07T04:46:39;101610.75;;;7.43;100.00
71735;BME280;59577;52.122;5.406;2023-04-07T04:49:06;101616.13;;;7.43;100.00
71735;BME280;59577;52.122;5.406;2023-04-07T04:51:33;101615.31;;;7.42;100.00
71735;BME280;59577;52.122;5.406;2023-04-07T04:53:59;101621.53;;;7.43;100.00
71735;BME280;59577;52.122;5.406;2023-04-07T04:56:39;101617.22;;;7.42;100.00
71735;BME280;59577;52.122;5.406;2023-04-07T04:59:06;101620.72;;;7.42;100.00
71735;BME280;59577;52.122;5.406;2023-04-07T05:01:32;101629.13;;;7.41;100.00
71735;BME280;59577;52.122;5.406;2023-04-07T05:03:59;101626.44;;;7.41;100.00
71735;BME280;59577;52.122;5.406;2023-04-07T05:06:26;101622.91;;;7.40;100.00
71735;BME280;59577;52.122;5.406;2023-04-07T05:08:53;101630.69;;;7.42;100.00
71735;BME280;59577;52.122;5.406;2023-04-07T05:11:19;101626.91;;;7.43;100.00
71735;BME280;59577;52.122;5.406;2023-04-07T05:13:46;101625.78;;;7.44;100.00
71735;BME280;59577;52.122;5.406;2023-04-07T05:16:13;101631.34;;;7.47;100.00
71735;BME280;59577;52.122;5.406;2023-04-07T05:18:39;101631.03;;;7.49;100.00
71735;BME280;59577;52.122;5.406;2023-04-07T05:21:07;101635.81;;;7.52;100.00
71735;BME280;59577;52.122;5.406;2023-04-07T05:23:34;101633.91;;;7.52;100.00
71735;BME280;59577;52.122;5.406;2023-04-07T05:26:01;101635.81;;;7.52;100.00
71735;BME280;59577;52.122;5.406;2023-04-07T05:28:27;101640.09;;;7.53;100.00
71735;BME280;59577;52.122;5.406;2023-04-07T05:30:54;101640.09;;;7.53;100.00
71735;BME280;59577;52.122;5.406;2023-04-07T05:33:21;101644.38;;;7.54;100.00
71735;BME280;59577;52.122;5.406;2023-04-07T05:35:47;101640.88;;;7.53;100.00
71735;BME280;59577;52.122;5.406;2023-04-07T05:38:14;101647.06;;;7.54;100.00
71735;BME280;59577;52.122;5.406;2023-04-07T05:40:41;101646.28;;;7.53;100.00
71735;BME280;59577;52.122;5.406;2023-04-07T05:43:08;101639.28;;;7.52;100.00
71735;BME280;59577;52.122;5.406;2023-04-07T05:45:35;101642.81;;;7.53;100.00
71735;BME280;59577;52.122;5.406;2023-04-07T05:48:02;101648.66;;;7.55;100.00
71735;BME280;59577;52.122;5.406;2023-04-07T05:50:28;101652.97;;;7.56;100.00
71735;BME280;59577;52.122;5.406;2023-04-07T05:52:55;101649.16;;;7.57;100.00
71735;BME280;59577;52.122;5.406;2023-04-07T05:55:21;101653.44;;;7.58;100.00
71735;BME280;59577;52.122;5.406;2023-04-07T05:58:12;101657.72;;;7.59;100.00
71735;BME280;59577;52.122;5.406;2023-04-07T06:00:40;101658.53;;;7.60;100.00
71735;BME280;59577;52.122;5.406;2023-04-07T06:03:06;101658.53;;;7.60;100.00
71735;BME280;59577;52.122;5.406;2023-04-07T06:05:33;101658.81;;;7.58;100.00
71735;BME280;59577;52.122;5.406;2023-04-07T06:08:00;101661.53;;;7.58;100.00
71735;BME280;59577;52.122;5.406;2023-04-07T06:10:26;101669.28;;;7.60;100.00
71735;BME280;59577;52.122;5.406;2023-04-07T06:12:53;101665.00;;;7.59;100.00
71735;BME280;59577;52.122;5.406;2023-04-07T06:15:20;101669.78;;;7.62;100.00
71735;BME280;59577;52.122;5.406;2023-04-07T06:17:46;101672.94;;;7.64;100.00
71735;BME280;59577;52.122;5.406;2023-04-07T06:20:12;101671.53;;;7.66;100.00
71735;BME280;59577;52.122;5.406;2023-04-07T06:22:39;101676.59;;;7.68;100.00
71735;BME280;59577;52.122;5.406;2023-04-07T06:25:06;101672.81;;;7.69;100.00
71735;BME280;59577;52.122;5.406;2023-04-07T06:27:33;101679.81;;;7.70;100.00
71735;BME280;59577;52.122;5.406;2023-04-07T06:29:59;101682.50;;;7.70;100.00
71735;BME280;59577;52.122;5.406;2023-04-07T06:32:26;101680.59;;;7.70;100.00
71735;BME280;59577;52.122;5.406;2023-04-07T06:34:53;101684.53;;;7.73;100.00
71735;BME280;59577;52.122;5.406;2023-04-07T06:37:20;101683.16;;;7.76;100.00
71735;BME280;59577;52.122;5.406;2023-04-07T06:39:47;101687.41;;;7.77;100.00
71735;BME280;59577;52.122;5.406;2023-04-07T06:42:13;101688.88;;;7.83;100.00
71735;BME280;59577;52.122;5.406;2023-04-07T06:44:52;101689.03;;;7.86;100.00
71735;BME280;59577;52.122;5.406;2023-04-07T06:47:18;101691.28;;;7.93;100.00
71735;BME280;59577;52.122;5.406;2023-04-07T06:49:45;101691.28;;;7.93;100.00
71735;BME280;59577;52.122;5.406;2023-04-07T06:52:12;101694.47;;;7.95;100.00
71735;BME280;59577;52.122;5.406;2023-04-07T06:54:38;101695.41;;;7.99;100.00
71735;BME280;59577;52.122;5.406;2023-04-07T06:57:05;101707.97;;;8.04;100.00
71735;BME280;59577;52.122;5.406;2023-04-07T06:59:37;101714.00;;;8.09;100.00
71735;BME280;59577;52.122;5.406;2023-04-07T07:02:04;101710.69;;;8.13;100.00
71735;BME280;59577;52.122;5.406;2023-04-07T07:04:33;101712.78;;;8.16;100.00
71735;BME280;59577;52.122;5.406;2023-04-07T07:07:00;101715.00;;;8.22;100.00
71735;BME280;59577;52.122;5.406;2023-04-07T07:09:27;101710.72;;;8.30;100.00
71735;BME280;59577;52.122;5.406;2023-04-07T07:11:54;101712.03;;;8.41;100.00
71735;BME280;59577;52.122;5.406;2023-04-07T07:14:21;101717.47;;;8.50;100.00
71735;BME280;59577;52.122;5.406;2023-04-07T07:16:47;101715.72;;;8.54;100.00
71735;BME280;59577;52.122;5.406;2023-04-07T07:19:14;101714.47;;;8.60;100.00
71735;BME280;59577;52.122;5.406;2023-04-07T07:21:40;101720.81;;;8.64;100.00
71735;BME280;59577;52.122;5.406;2023-04-07T07:24:07;101722.88;;;8.68;100.00
71735;BME280;59577;52.122;5.406;2023-04-07T07:26:34;101725.75;;;8.71;100.00
71735;BME280;59577;52.122;5.406;2023-04-07T07:29:20;101729.38;;;8.75;100.00
71735;BME280;59577;52.122;5.406;2023-04-07T07:31:47;101728.59;;;8.75;100.00
71735;BME280;59577;52.122;5.406;2023-04-07T07:34:14;101735.91;;;8.74;100.00
71735;BME280;59577;52.122;5.406;2023-04-07T07:36:40;101733.22;;;8.74;100.00
71735;BME280;59577;52.122;5.406;2023-04-07T07:39:07;101724.81;;;8.76;100.00
71735;BME280;59577;52.122;5.406;2023-04-07T07:41:33;101734.78;;;8.75;100.00
71735;BME280;59577;52.122;5.406;2023-04-07T07:44:00;101740.84;;;8.81;100.00
71735;BME280;59577;52.122;5.406;2023-04-07T07:46:38;101744.34;;;8.81;100.00
71735;BME280;59577;52.122;5.406;2023-04-07T07:49:05;101747.50;;;8.83;100.00
71735;BME280;59577;52.122;5.406;2023-04-07T07:51:43;101749.88;;;8.85;100.00
71735;BME280;59577;52.122;5.406;2023-04-07T07:54:11;101750.03;;;8.89;100.00
71735;BME280;59577;52.122;5.406;2023-04-07T07:56:38;101748.78;;;8.95;100.00
71735;BME280;59577;52.122;5.406;2023-04-07T07:59:04;101752.44;;;8.99;100.00
71735;BME280;59577;52.122;5.406;2023-04-07T08:01:34;101752.75;;;9.06;100.00
71735;BME280;59577;52.122;5.406;2023-04-07T08:04:01;101754.97;;;9.13;100.00
71735;BME280;59577;52.122;5.406;2023-04-07T08:06:27;101765.31;;;9.19;100.00
71735;BME280;59577;52.122;5.406;2023-04-07T08:08:54;101768.78;;;9.20;100.00
71735;BME280;59577;52.122;5.406;2023-04-07T08:11:21;101760.06;;;9.23;100.00
71735;BME280;59577;52.122;5.406;2023-04-07T08:13:48;101761.81;;;9.28;100.00
71735;BME280;59577;52.122;5.406;2023-04-07T08:16:15;101765.44;;;9.40;100.00
71735;BME280;59577;52.122;5.406;2023-04-07T08:18:42;101771.44;;;9.55;100.00
71735;BME280;59577;52.122;5.406;2023-04-07T08:21:09;101767.28;;;9.66;100.00
71735;BME280;59577;52.122;5.406;2023-04-07T08:23:36;101765.81;;;9.77;100.00
71735;BME280;59577;52.122;5.406;2023-04-07T08:26:03;101771.84;;;9.83;100.00
71735;BME280;59577;52.122;5.406;2023-04-07T08:28:29;101776.91;;;9.93;100.00
71735;BME280;59577;52.122;5.406;2023-04-07T08:30:57;101772.53;;;10.10;100.00
71735;BME280;59577;52.122;5.406;2023-04-07T08:33:26;101774.56;;;10.22;100.00
71735;BME280;59577;52.122;5.406;2023-04-07T08:35:52;101777.53;;;10.29;100.00
71735;BME280;59577;52.122;5.406;2023-04-07T08:38:21;101774.69;;;10.34;99.83
71735;BME280;59577;52.122;5.406;2023-04-07T08:41:12;101777.41;;;10.34;98.70
71735;BME280;59577;52.122;5.406;2023-04-07T08:43:56;101779.22;;;10.51;98.97
71735;BME280;59577;52.122;5.406;2023-04-07T08:46:24;101782.91;;;10.67;98.46
71735;BME280;59577;52.122;5.406;2023-04-07T08:49:08;101781.63;;;10.73;97.87
71735;BME280;59577;52.122;5.406;2023-04-07T08:51:37;101784.97;;;10.70;97.13
71735;BME280;59577;52.122;5.406;2023-04-07T08:54:18;101792.13;;;10.75;96.65
71735;BME280;59577;52.122;5.406;2023-04-07T08:56:47;101786.66;;;10.84;96.30
71735;BME280;59577;52.122;5.406;2023-04-07T08:59:14;101788.78;;;10.99;96.07
71735;BME280;59577;52.122;5.406;2023-04-07T09:01:44;101791.88;;;11.10;95.29
71735;BME280;59577;52.122;5.406;2023-04-07T09:04:12;101797.53;;;11.17;94.42
71735;BME280;59577;52.122;5.406;2023-04-07T09:06:52;101806.72;;;11.04;93.50
71735;BME280;59577;52.122;5.406;2023-04-07T09:09:19;101807.16;;;10.94;92.56
71735;BME280;59577;52.122;5.406;2023-04-07T09:11:47;101804.34;;;10.81;91.76
71735;BME280;59577;52.122;5.406;2023-04-07T09:14:13;101808.97;;;10.81;92.21
71735;BME280;59577;52.122;5.406;2023-04-07T09:17:01;101816.13;;;10.85;92.58
71735;BME280;59577;52.122;5.406;2023-04-07T09:19:28;101813.41;;;10.85;92.10
71735;BME280;59577;52.122;5.406;2023-04-07T09:21:56;101815.09;;;10.90;91.63
71735;BME280;59577;52.122;5.406;2023-04-07T09:24:24;101817.97;;;10.94;91.08
71735;BME280;59577;52.122;5.406;2023-04-07T09:27:14;101815.91;;;10.90;90.05
71735;BME280;59577;52.122;5.406;2023-04-07T09:29:44;101820.88;;;10.88;90.23
71735;BME280;59577;52.122;5.406;2023-04-07T09:32:11;101812.41;;;10.90;91.32
71735;BME280;59577;52.122;5.406;2023-04-07T09:34:40;101818.38;;;10.83;90.27
71735;BME280;59577;52.122;5.406;2023-04-07T09:37:07;101822.78;;;10.88;90.34
71735;BME280;59577;52.122;5.406;2023-04-07T09:39:51;101817.03;;;10.89;89.51
71735;BME280;59577;52.122;5.406;2023-04-07T09:42:19;101823.19;;;10.99;89.62
71735;BME280;59577;52.122;5.406;2023-04-07T09:44:46;101814.53;;;11.05;89.64
71735;BME280;59577;52.122;5.406;2023-04-07T09:47:13;101816.13;;;11.06;89.81
71735;BME280;59577;52.122;5.406;2023-04-07T09:49:50;101817.72;;;11.07;89.16
71735;BME280;59577;52.122;5.406;2023-04-07T09:52:23;101826.97;;;11.06;89.05
71735;BME280;59577;52.122;5.406;2023-04-07T09:54:51;101828.13;;;10.97;88.09
71735;BME280;59577;52.122;5.406;2023-04-07T09:57:19;101831.72;;;10.88;88.18
71735;BME280;59577;52.122;5.406;2023-04-07T09:59:47;101831.22;;;10.86;88.11
71735;BME280;59577;52.122;5.406;2023-04-07T10:02:14;101828.06;;;10.84;88.05
71735;BME280;59577;52.122;5.406;2023-04-07T10:04:40;101826.31;;;10.88;87.99
71735;BME280;59577;52.122;5.406;2023-04-07T10:07:07;101831.66;;;10.97;88.77
71735;BME280;59577;52.122;5.406;2023-04-07T10:09:34;101834.81;;;10.99;88.28
71735;BME280;59577;52.122;5.406;2023-04-07T10:12:01;101832.69;;;11.05;87.97
71735;BME280;59577;52.122;5.406;2023-04-07T10:14:31;101829.53;;;11.03;87.65
71735;BME280;59577;52.122;5.406;2023-04-07T10:17:03;101836.38;;;11.00;87.37
71735;BME280;59577;52.122;5.406;2023-04-07T10:19:31;101839.34;;;10.86;86.74
71735;BME280;59577;52.122;5.406;2023-04-07T10:22:01;101836.31;;;10.88;86.87
71735;BME280;59577;52.122;5.406;2023-04-07T10:27:27;101844.50;;;10.79;86.66
71735;BME280;59577;52.122;5.406;2023-04-07T10:29:55;101851.66;;;10.84;86.97
71735;BME280;59577;52.122;5.406;2023-04-07T10:32:23;101847.84;;;10.85;86.98
71735;BME280;59577;52.122;5.406;2023-04-07T10:37:19;101851.00;;;10.87;87.54
71735;BME280;59577;52.122;5.406;2023-04-07T10:39:49;101855.59;;;10.86;87.51
71735;BME280;59577;52.122;5.406;2023-04-07T10:45:07;101856.59;;;10.82;87.37
71735;BME280;59577;52.122;5.406;2023-04-07T10:50:24;101862.03;;;10.82;86.94
71735;BME280;59577;52.122;5.406;2023-04-07T10:53:05;101871.25;;;10.81;86.42
71735;BME280;59577;52.122;5.406;2023-04-07T10:55:41;101863.31;;;10.76;86.78
71735;BME280;59577;52.122;5.406;2023-04-07T10:58:13;101859.88;;;10.66;85.98
71735;BME280;59577;52.122;5.406;2023-04-07T11:00:40;101872.19;;;10.55;85.56
71735;BME280;59577;52.122;5.406;2023-04-07T11:03:12;101875.38;;;10.48;85.49
71735;BME280;59577;52.122;5.406;2023-04-07T11:05:40;101878.28;;;10.43;85.52
71735;BME280;59577;52.122;5.406;2023-04-07T11:08:07;101882.44;;;10.41;85.79
71735;BME280;59577;52.122;5.406;2023-04-07T11:10:34;101878.31;;;10.34;85.86
71735;BME280;59577;52.122;5.406;2023-04-07T11:13:06;101880.06;;;10.30;86.33
71735;BME280;59577;52.122;5.406;2023-04-07T11:15:37;101880.38;;;10.29;86.14
71735;BME280;59577;52.122;5.406;2023-04-07T11:18:12;101887.25;;;10.26;86.70
71735;BME280;59577;52.122;5.406;2023-04-07T11:20:54;101885.97;;;10.24;86.39
71735;BME280;59577;52.122;5.406;2023-04-07T11:23:22;101883.56;;;10.22;86.84
71735;BME280;59577;52.122;5.406;2023-04-07T11:25:50;101885.66;;;10.25;86.64
71735;BME280;59577;52.122;5.406;2023-04-07T11:28:18;101887.72;;;10.28;86.83
71735;BME280;59577;52.122;5.406;2023-04-07T11:30:47;101893.44;;;10.35;87.13
71735;BME280;59577;52.122;5.406;2023-04-07T11:33:16;101897.06;;;10.40;86.98
71735;BME280;59577;52.122;5.406;2023-04-07T11:38:17;101890.34;;;10.54;87.32
71735;BME280;59577;52.122;5.406;2023-04-07T11:40:45;101893.50;;;10.57;86.85
71735;BME280;59577;52.122;5.406;2023-04-07T11:43:25;101902.28;;;10.53;86.37
71735;BME280;59577;52.122;5.406;2023-04-07T11:46:14;101895.25;;;10.61;86.43
71735;BME280;59577;52.122;5.406;2023-04-07T11:48:44;101892.38;;;10.66;86.47
71735;BME280;59577;52.122;5.406;2023-04-07T11:51:18;101892.84;;;10.68;86.15
71735;BME280;59577;52.122;5.406;2023-04-07T11:53:45;101900.31;;;10.71;85.59
71735;BME280;59577;52.122;5.406;2023-04-07T11:56:15;101903.06;;;10.63;85.03
71735;BME280;59577;52.122;5.406;2023-04-07T11:59:01;101904.03;;;10.58;84.53
71735;BME280;59577;52.122;5.406;2023-04-07T12:01:40;101907.69;;;10.53;84.73
71735;BME280;59577;52.122;5.406;2023-04-07T12:04:11;101910.06;;;10.55;85.21
71735;BME280;59577;52.122;5.406;2023-04-07T12:06:38;101905.81;;;10.54;84.90
71735;BME280;59577;52.122;5.406;2023-04-07T12:09:08;101915.34;;;10.51;84.93
71735;BME280;59577;52.122;5.406;2023-04-07T12:11:35;101914.56;;;10.51;85.10
71735;BME280;59577;52.122;5.406;2023-04-07T12:14:04;101918.53;;;10.53;85.24
71735;BME280;59577;52.122;5.406;2023-04-07T12:16:36;101924.06;;;10.57;85.93
71735;BME280;59577;52.122;5.406;2023-04-07T12:19:03;101926.16;;;10.60;85.63
71735;BME280;59577;52.122;5.406;2023-04-07T12:21:30;101925.81;;;10.62;85.39
71735;BME280;59577;52.122;5.406;2023-04-07T12:23:56;101930.59;;;10.65;85.77
71735;BME280;59577;52.122;5.406;2023-04-07T12:26:23;101930.41;;;10.70;85.46
71735;BME280;59577;52.122;5.406;2023-04-07T12:28:50;101931.66;;;10.72;85.45
71735;BME280;59577;52.122;5.406;2023-04-07T12:31:17;101939.59;;;10.78;84.92
71735;BME280;59577;52.122;5.406;2023-04-07T12:33:43;101938.97;;;10.81;84.97
71735;BME280;59577;52.122;5.406;2023-04-07T12:36:10;101938.47;;;10.87;84.63
71735;BME280;59577;52.122;5.406;2023-04-07T12:38:37;101928.69;;;10.95;85.04
71735;BME280;59577;52.122;5.406;2023-04-07T12:41:03;101927.25;;;10.98;84.66
71735;BME280;59577;52.122;5.406;2023-04-07T12:43:30;101939.69;;;10.99;84.23
71735;BME280;59577;52.122;5.406;2023-04-07T12:45:56;101932.69;;;10.98;83.84
71735;BME280;59577;52.122;5.406;2023-04-07T12:48:23;101933.47;;;10.98;82.99
71735;BME280;59577;52.122;5.406;2023-04-07T12:50:51;101938.22;;;11.01;83.45
71735;BME280;59577;52.122;5.406;2023-04-07T12:53:18;101940.75;;;11.06;83.24
71735;BME280;59577;52.122;5.406;2023-04-07T12:55:46;101948.41;;;11.04;82.91
71735;BME280;59577;52.122;5.406;2023-04-07T12:58:15;101946.81;;;11.03;83.38
71735;BME280;59577;52.122;5.406;2023-04-07T13:00:42;101946.69;;;11.00;83.23
71735;BME280;59577;52.122;5.406;2023-04-07T13:03:09;101946.69;;;11.00;83.32
71735;BME280;59577;52.122;5.406;2023-04-07T13:05:36;101946.34;;;11.01;82.79
71735;BME280;59577;52.122;5.406;2023-04-07T13:08:03;101948.94;;;10.98;82.19
71735;BME280;59577;52.122;5.406;2023-04-07T13:10:30;101954.34;;;10.98;82.01
71735;BME280;59577;52.122;5.406;2023-04-07T13:12:56;101951.13;;;11.04;82.49
71735;BME280;59577;52.122;5.406;2023-04-07T13:15:23;101953.97;;;11.08;82.92
71735;BME280;59577;52.122;5.406;2023-04-07T13:17:50;101961.31;;;11.07;82.82